Terminal Aerodrome Forecast
Issued by NWS Northern Indiana

Home | Current Version | Previous Version | Text Only | Print | Product List | Glossary On
Versions: 1 2 3 4 5 6 7 8 9 10 11 12
000
FTUS43 KIWX 031741
TAFFWA
TAF
KFWA 031741Z 0318/0418 08008KT P6SM SCT045 OVC160
     FM040500 VRB03KT P6SM SCT250
     FM040900 VRB03KT 4SM BR SKC
     FM041300 31005KT P6SM SKC=

USA.gov is the U.S. government's official web portal to all federal, state and local government web resources and services.